sensor_id;sensor_type;location;lat;lon;timestamp;temperature;humidity
6627;DHT22;3349;49.830;8.748;2023-11-18T00:02:07;5.70;99.90
6627;DHT22;3349;49.830;8.748;2023-11-18T00:04:35;5.70;99.90
6627;DHT22;3349;49.830;8.748;2023-11-18T00:07:02;5.80;99.90
6627;DHT22;3349;49.830;8.748;2023-11-18T00:09:29;5.80;99.90
6627;DHT22;3349;49.830;8.748;2023-11-18T00:11:56;5.80;99.90
6627;DHT22;3349;49.830;8.748;2023-11-18T00:14:23;5.90;99.90
6627;DHT22;3349;49.830;8.748;2023-11-18T00:16:50;5.90;99.90
6627;DHT22;3349;49.830;8.748;2023-11-18T00:19:16;5.90;99.90
6627;DHT22;3349;49.830;8.748;2023-11-18T00:21:44;5.90;99.90
6627;DHT22;3349;49.830;8.748;2023-11-18T00:24:11;5.90;99.90
6627;DHT22;3349;49.830;8.748;2023-11-18T00:26:38;6.00;99.90
6627;DHT22;3349;49.830;8.748;2023-11-18T00:29:05;5.90;99.90
6627;DHT22;3349;49.830;8.748;2023-11-18T00:31:33;5.90;99.90
6627;DHT22;3349;49.830;8.748;2023-11-18T00:33:59;5.80;99.90
6627;DHT22;3349;49.830;8.748;2023-11-18T00:36:26;5.80;99.90
6627;DHT22;3349;49.830;8.748;2023-11-18T00:38:55;5.70;99.90
6627;DHT22;3349;49.830;8.748;2023-11-18T00:41:21;5.60;99.90
6627;DHT22;3349;49.830;8.748;2023-11-18T00:43:48;5.60;99.90
6627;DHT22;3349;49.830;8.748;2023-11-18T00:46:15;5.60;99.90
6627;DHT22;3349;49.830;8.748;2023-11-18T00:48:43;5.50;99.90
6627;DHT22;3349;49.830;8.748;2023-11-18T00:51:09;5.50;99.90
6627;DHT22;3349;49.830;8.748;2023-11-18T00:53:36;5.60;99.90
6627;DHT22;3349;49.830;8.748;2023-11-18T00:56:05;5.60;99.90
6627;DHT22;3349;49.830;8.748;2023-11-18T00:58:35;5.70;99.90
6627;DHT22;3349;49.830;8.748;2023-11-18T01:01:05;5.80;99.90
6627;DHT22;3349;49.830;8.748;2023-11-18T01:03:32;5.90;99.90
6627;DHT22;3349;49.830;8.748;2023-11-18T01:06:00;5.90;99.90
6627;DHT22;3349;49.830;8.748;2023-11-18T01:08:27;5.90;99.90
6627;DHT22;3349;49.830;8.748;2023-11-18T01:10:54;5.90;99.90
6627;DHT22;3349;49.830;8.748;2023-11-18T01:13:22;5.80;99.90
6627;DHT22;3349;49.830;8.748;2023-11-18T01:15:48;5.80;99.90
6627;DHT22;3349;49.830;8.748;2023-11-18T01:18:15;5.80;99.90
6627;DHT22;3349;49.830;8.748;2023-11-18T01:20:43;5.80;99.90
6627;DHT22;3349;49.830;8.748;2023-11-18T01:23:09;5.80;99.90
6627;DHT22;3349;49.830;8.748;2023-11-18T01:25:36;5.80;99.90
6627;DHT22;3349;49.830;8.748;2023-11-18T01:28:03;5.80;99.90
6627;DHT22;3349;49.830;8.748;2023-11-18T01:30:31;5.80;99.90
6627;DHT22;3349;49.830;8.748;2023-11-18T01:32:58;5.70;99.90
6627;DHT22;3349;49.830;8.748;2023-11-18T01:35:26;5.60;99.90
6627;DHT22;3349;49.830;8.748;2023-11-18T01:37:53;5.60;99.90
6627;DHT22;3349;49.830;8.748;2023-11-18T01:40:20;5.60;99.90
6627;DHT22;3349;49.830;8.748;2023-11-18T01:42:47;5.50;99.90
6627;DHT22;3349;49.830;8.748;2023-11-18T01:45:13;5.50;99.90
6627;DHT22;3349;49.830;8.748;2023-11-18T01:47:44;5.50;99.90
6627;DHT22;3349;49.830;8.748;2023-11-18T01:50:14;5.50;99.90
6627;DHT22;3349;49.830;8.748;2023-11-18T01:52:41;5.50;99.90
6627;DHT22;3349;49.830;8.748;2023-11-18T01:55:08;5.50;99.90
6627;DHT22;3349;49.830;8.748;2023-11-18T01:57:35;5.50;99.90
6627;DHT22;3349;49.830;8.748;2023-11-18T02:00:03;5.60;99.90
6627;DHT22;3349;49.830;8.748;2023-11-18T02:02:31;5.60;99.90
6627;DHT22;3349;49.830;8.748;2023-11-18T02:05:00;5.50;99.90
6627;DHT22;3349;49.830;8.748;2023-11-18T02:07:27;5.60;99.90
6627;DHT22;3349;49.830;8.748;2023-11-18T02:09:55;5.50;99.90
6627;DHT22;3349;49.830;8.748;2023-11-18T02:12:25;5.50;99.90
6627;DHT22;3349;49.830;8.748;2023-11-18T02:14:54;5.50;99.90
6627;DHT22;3349;49.830;8.748;2023-11-18T02:17:22;5.40;99.90
6627;DHT22;3349;49.830;8.748;2023-11-18T02:19:50;5.40;99.90
6627;DHT22;3349;49.830;8.748;2023-11-18T02:22:18;5.30;99.90
6627;DHT22;3349;49.830;8.748;2023-11-18T02:24:47;5.20;99.90
6627;DHT22;3349;49.830;8.748;2023-11-18T02:27:15;5.10;99.90
6627;DHT22;3349;49.830;8.748;2023-11-18T02:29:46;5.00;99.90
6627;DHT22;3349;49.830;8.748;2023-11-18T02:32:18;4.80;99.90
6627;DHT22;3349;49.830;8.748;2023-11-18T02:34:53;4.80;99.90
6627;DHT22;3349;49.830;8.748;2023-11-18T02:37:23;4.90;99.90
6627;DHT22;3349;49.830;8.748;2023-11-18T02:39:53;4.80;99.90
6627;DHT22;3349;49.830;8.748;2023-11-18T02:42:24;4.70;99.90
6627;DHT22;3349;49.830;8.748;2023-11-18T02:44:52;4.60;99.90
6627;DHT22;3349;49.830;8.748;2023-11-18T02:47:25;4.50;99.90
6627;DHT22;3349;49.830;8.748;2023-11-18T02:49:54;4.40;99.90
6627;DHT22;3349;49.830;8.748;2023-11-18T02:52:21;4.40;99.90
6627;DHT22;3349;49.830;8.748;2023-11-18T02:54:48;4.40;99.90
6627;DHT22;3349;49.830;8.748;2023-11-18T02:57:15;4.30;99.90
6627;DHT22;3349;49.830;8.748;2023-11-18T02:59:43;4.40;99.90
6627;DHT22;3349;49.830;8.748;2023-11-18T03:02:12;4.50;99.90
6627;DHT22;3349;49.830;8.748;2023-11-18T03:04:39;4.50;99.90
6627;DHT22;3349;49.830;8.748;2023-11-18T03:07:08;4.40;99.90
6627;DHT22;3349;49.830;8.748;2023-11-18T03:09:34;4.30;99.90
6627;DHT22;3349;49.830;8.748;2023-11-18T03:12:05;4.30;99.90
6627;DHT22;3349;49.830;8.748;2023-11-18T03:14:33;4.20;99.90
6627;DHT22;3349;49.830;8.748;2023-11-18T03:17:01;4.20;99.90
6627;DHT22;3349;49.830;8.748;2023-11-18T03:19:31;4.10;99.90
6627;DHT22;3349;49.830;8.748;2023-11-18T03:21:58;4.20;99.90
6627;DHT22;3349;49.830;8.748;2023-11-18T03:24:25;4.30;99.90
6627;DHT22;3349;49.830;8.748;2023-11-18T03:26:51;4.30;99.90
6627;DHT22;3349;49.830;8.748;2023-11-18T03:29:18;4.30;99.90
6627;DHT22;3349;49.830;8.748;2023-11-18T03:31:45;4.30;99.90
6627;DHT22;3349;49.830;8.748;2023-11-18T03:34:15;4.30;99.90
6627;DHT22;3349;49.830;8.748;2023-11-18T03:36:44;4.30;99.90
6627;DHT22;3349;49.830;8.748;2023-11-18T03:39:10;4.30;99.90
6627;DHT22;3349;49.830;8.748;2023-11-18T03:41:37;4.30;99.90
6627;DHT22;3349;49.830;8.748;2023-11-18T03:44:04;4.30;99.90
6627;DHT22;3349;49.830;8.748;2023-11-18T03:46:31;4.30;99.90
6627;DHT22;3349;49.830;8.748;2023-11-18T03:48:59;4.30;99.90
6627;DHT22;3349;49.830;8.748;2023-11-18T03:51:27;4.30;99.90
6627;DHT22;3349;49.830;8.748;2023-11-18T03:53:54;4.30;99.90
6627;DHT22;3349;49.830;8.748;2023-11-18T03:56:21;4.30;99.90
6627;DHT22;3349;49.830;8.748;2023-11-18T03:58:48;4.20;99.90
6627;DHT22;3349;49.830;8.748;2023-11-18T04:01:20;4.30;99.90
6627;DHT22;3349;49.830;8.748;2023-11-18T04:03:46;4.30;99.90
6627;DHT22;3349;49.830;8.748;2023-11-18T04:06:13;4.20;99.90
6627;DHT22;3349;49.830;8.748;2023-11-18T04:08:44;4.20;99.90
6627;DHT22;3349;49.830;8.748;2023-11-18T04:11:10;4.20;99.90
6627;DHT22;3349;49.830;8.748;2023-11-18T04:13:37;4.20;99.90
6627;DHT22;3349;49.830;8.748;2023-11-18T04:16:05;4.20;99.90
6627;DHT22;3349;49.830;8.748;2023-11-18T04:18:31;4.20;99.90
6627;DHT22;3349;49.830;8.748;2023-11-18T04:20:58;4.20;99.90
6627;DHT22;3349;49.830;8.748;2023-11-18T04:23:25;4.10;99.90
6627;DHT22;3349;49.830;8.748;2023-11-18T04:25:53;4.10;99.90
6627;DHT22;3349;49.830;8.748;2023-11-18T04:28:19;4.00;99.90
6627;DHT22;3349;49.830;8.748;2023-11-18T04:30:46;4.00;99.90
6627;DHT22;3349;49.830;8.748;2023-11-18T04:33:13;4.00;99.90
6627;DHT22;3349;49.830;8.748;2023-11-18T04:35:40;4.00;99.90
6627;DHT22;3349;49.830;8.748;2023-11-18T04:38:07;4.00;99.90
6627;DHT22;3349;49.830;8.748;2023-11-18T04:40:33;3.90;99.90
6627;DHT22;3349;49.830;8.748;2023-11-18T04:43:02;3.90;99.90
6627;DHT22;3349;49.830;8.748;2023-11-18T04:45:30;3.80;99.90
6627;DHT22;3349;49.830;8.748;2023-11-18T04:47:56;3.80;99.90
6627;DHT22;3349;49.830;8.748;2023-11-18T04:50:24;3.70;99.90
6627;DHT22;3349;49.830;8.748;2023-11-18T04:52:51;3.70;99.90
6627;DHT22;3349;49.830;8.748;2023-11-18T04:55:18;3.60;99.90
6627;DHT22;3349;49.830;8.748;2023-11-18T04:57:45;3.60;99.90
6627;DHT22;3349;49.830;8.748;2023-11-18T05:00:14;3.50;99.90
6627;DHT22;3349;49.830;8.748;2023-11-18T05:02:43;3.50;99.90
6627;DHT22;3349;49.830;8.748;2023-11-18T05:05:10;3.50;99.90
6627;DHT22;3349;49.830;8.748;2023-11-18T05:07:37;3.40;99.90
6627;DHT22;3349;49.830;8.748;2023-11-18T05:10:05;3.40;99.90
6627;DHT22;3349;49.830;8.748;2023-11-18T05:12:33;3.40;99.90
6627;DHT22;3349;49.830;8.748;2023-11-18T05:15:00;3.40;99.90
6627;DHT22;3349;49.830;8.748;2023-11-18T05:17:30;3.30;99.90
6627;DHT22;3349;49.830;8.748;2023-11-18T05:19:56;3.20;99.90
6627;DHT22;3349;49.830;8.748;2023-11-18T05:22:23;3.10;99.90
6627;DHT22;3349;49.830;8.748;2023-11-18T05:24:50;3.10;99.90
6627;DHT22;3349;49.830;8.748;2023-11-18T05:27:17;3.00;99.90
6627;DHT22;3349;49.830;8.748;2023-11-18T05:29:44;3.00;99.90
6627;DHT22;3349;49.830;8.748;2023-11-18T05:32:13;3.00;99.90
6627;DHT22;3349;49.830;8.748;2023-11-18T05:34:41;3.00;99.90
6627;DHT22;3349;49.830;8.748;2023-11-18T05:37:08;3.10;99.90
6627;DHT22;3349;49.830;8.748;2023-11-18T05:39:36;3.10;99.90
6627;DHT22;3349;49.830;8.748;2023-11-18T05:42:08;3.00;99.90
6627;DHT22;3349;49.830;8.748;2023-11-18T05:44:36;3.00;99.90
6627;DHT22;3349;49.830;8.748;2023-11-18T05:47:05;3.00;99.90
6627;DHT22;3349;49.830;8.748;2023-11-18T05:49:32;3.00;99.90
6627;DHT22;3349;49.830;8.748;2023-11-18T05:52:00;3.00;99.90
6627;DHT22;3349;49.830;8.748;2023-11-18T05:54:27;3.00;99.90
6627;DHT22;3349;49.830;8.748;2023-11-18T05:56:54;3.10;99.90
6627;DHT22;3349;49.830;8.748;2023-11-18T05:59:20;3.10;99.90
6627;DHT22;3349;49.830;8.748;2023-11-18T06:01:47;3.20;99.90
6627;DHT22;3349;49.830;8.748;2023-11-18T06:04:14;3.20;99.90
6627;DHT22;3349;49.830;8.748;2023-11-18T06:06:41;3.20;99.90
6627;DHT22;3349;49.830;8.748;2023-11-18T06:09:09;3.20;99.90
6627;DHT22;3349;49.830;8.748;2023-11-18T06:11:43;3.20;99.90
6627;DHT22;3349;49.830;8.748;2023-11-18T06:14:10;3.30;99.90
6627;DHT22;3349;49.830;8.748;2023-11-18T06:16:38;3.20;99.90
6627;DHT22;3349;49.830;8.748;2023-11-18T06:19:06;3.30;99.90
6627;DHT22;3349;49.830;8.748;2023-11-18T06:21:33;3.30;99.90
6627;DHT22;3349;49.830;8.748;2023-11-18T06:24:01;3.40;99.90
6627;DHT22;3349;49.830;8.748;2023-11-18T06:26:31;3.50;99.90
6627;DHT22;3349;49.830;8.748;2023-11-18T06:28:57;3.50;99.90
6627;DHT22;3349;49.830;8.748;2023-11-18T06:31:25;3.50;99.90
6627;DHT22;3349;49.830;8.748;2023-11-18T06:33:52;3.60;99.90
6627;DHT22;3349;49.830;8.748;2023-11-18T06:36:19;3.70;99.90
6627;DHT22;3349;49.830;8.748;2023-11-18T06:38:48;3.70;99.90
6627;DHT22;3349;49.830;8.748;2023-11-18T06:41:16;3.80;99.90
6627;DHT22;3349;49.830;8.748;2023-11-18T06:43:45;3.80;99.90
6627;DHT22;3349;49.830;8.748;2023-11-18T06:46:22;3.90;99.90
6627;DHT22;3349;49.830;8.748;2023-11-18T06:48:50;3.90;99.90
6627;DHT22;3349;49.830;8.748;2023-11-18T06:51:20;4.00;99.90
6627;DHT22;3349;49.830;8.748;2023-11-18T06:53:49;4.00;99.90
6627;DHT22;3349;49.830;8.748;2023-11-18T06:56:15;4.10;99.90
6627;DHT22;3349;49.830;8.748;2023-11-18T06:58:43;4.20;99.90
6627;DHT22;3349;49.830;8.748;2023-11-18T07:01:12;4.30;99.90
6627;DHT22;3349;49.830;8.748;2023-11-18T07:03:40;4.30;99.90
6627;DHT22;3349;49.830;8.748;2023-11-18T07:06:08;4.30;99.90
6627;DHT22;3349;49.830;8.748;2023-11-18T07:08:35;4.40;99.90
6627;DHT22;3349;49.830;8.748;2023-11-18T07:11:02;4.40;99.90
6627;DHT22;3349;49.830;8.748;2023-11-18T07:13:28;4.40;99.90
6627;DHT22;3349;49.830;8.748;2023-11-18T07:15:56;4.50;99.90
6627;DHT22;3349;49.830;8.748;2023-11-18T07:18:23;4.50;99.90
6627;DHT22;3349;49.830;8.748;2023-11-18T07:20:50;4.60;99.90
6627;DHT22;3349;49.830;8.748;2023-11-18T07:23:17;4.70;99.90
6627;DHT22;3349;49.830;8.748;2023-11-18T07:25:44;4.70;99.90
6627;DHT22;3349;49.830;8.748;2023-11-18T07:28:11;4.80;99.90
6627;DHT22;3349;49.830;8.748;2023-11-18T07:30:40;4.90;99.90
6627;DHT22;3349;49.830;8.748;2023-11-18T07:33:08;5.00;99.90
6627;DHT22;3349;49.830;8.748;2023-11-18T07:35:35;5.10;99.90
6627;DHT22;3349;49.830;8.748;2023-11-18T07:38:02;5.20;99.90
6627;DHT22;3349;49.830;8.748;2023-11-18T07:40:29;5.30;99.90
6627;DHT22;3349;49.830;8.748;2023-11-18T07:42:55;5.40;99.90
6627;DHT22;3349;49.830;8.748;2023-11-18T07:45:23;5.50;99.90
6627;DHT22;3349;49.830;8.748;2023-11-18T07:47:49;5.50;99.90
6627;DHT22;3349;49.830;8.748;2023-11-18T07:50:18;5.60;99.90
6627;DHT22;3349;49.830;8.748;2023-11-18T07:52:46;5.70;99.90
6627;DHT22;3349;49.830;8.748;2023-11-18T07:55:13;5.80;99.90
6627;DHT22;3349;49.830;8.748;2023-11-18T07:57:40;5.90;99.90
6627;DHT22;3349;49.830;8.748;2023-11-18T08:00:08;6.00;99.90
6627;DHT22;3349;49.830;8.748;2023-11-18T08:02:35;6.00;99.90
6627;DHT22;3349;49.830;8.748;2023-11-18T08:05:02;6.10;99.90
6627;DHT22;3349;49.830;8.748;2023-11-18T08:07:33;6.20;99.90
6627;DHT22;3349;49.830;8.748;2023-11-18T08:10:00;6.30;99.90
6627;DHT22;3349;49.830;8.748;2023-11-18T08:12:29;6.30;99.90
6627;DHT22;3349;49.830;8.748;2023-11-18T08:14:56;6.40;99.90
6627;DHT22;3349;49.830;8.748;2023-11-18T08:17:23;6.50;99.90
6627;DHT22;3349;49.830;8.748;2023-11-18T08:19:50;6.60;99.90
6627;DHT22;3349;49.830;8.748;2023-11-18T08:22:17;6.60;99.90
6627;DHT22;3349;49.830;8.748;2023-11-18T08:24:49;6.60;99.90
6627;DHT22;3349;49.830;8.748;2023-11-18T08:27:16;6.70;99.90
6627;DHT22;3349;49.830;8.748;2023-11-18T08:29:43;6.70;99.90
6627;DHT22;3349;49.830;8.748;2023-11-18T08:32:11;6.70;99.90
6627;DHT22;3349;49.830;8.748;2023-11-18T08:34:38;6.70;99.90
6627;DHT22;3349;49.830;8.748;2023-11-18T08:37:06;6.80;99.90
6627;DHT22;3349;49.830;8.748;2023-11-18T08:39:33;6.90;99.90
6627;DHT22;3349;49.830;8.748;2023-11-18T08:42:01;6.90;99.90
6627;DHT22;3349;49.830;8.748;2023-11-18T08:44:27;7.00;99.90
6627;DHT22;3349;49.830;8.748;2023-11-18T08:46:54;7.00;99.90
6627;DHT22;3349;49.830;8.748;2023-11-18T08:49:23;7.00;99.90
6627;DHT22;3349;49.830;8.748;2023-11-18T08:51:51;7.10;99.90
6627;DHT22;3349;49.830;8.748;2023-11-18T08:54:21;7.10;99.90
6627;DHT22;3349;49.830;8.748;2023-11-18T08:57:03;7.30;99.90
6627;DHT22;3349;49.830;8.748;2023-11-18T08:59:45;7.30;99.90
6627;DHT22;3349;49.830;8.748;2023-11-18T09:02:12;7.40;99.90
6627;DHT22;3349;49.830;8.748;2023-11-18T09:04:40;7.50;99.90
6627;DHT22;3349;49.830;8.748;2023-11-18T09:07:08;7.60;99.90
6627;DHT22;3349;49.830;8.748;2023-11-18T09:09:36;7.60;99.90
6627;DHT22;3349;49.830;8.748;2023-11-18T09:12:04;7.60;99.90
6627;DHT22;3349;49.830;8.748;2023-11-18T09:14:32;7.60;99.90
6627;DHT22;3349;49.830;8.748;2023-11-18T09:16:59;7.70;99.90
6627;DHT22;3349;49.830;8.748;2023-11-18T09:19:27;7.80;99.90
6627;DHT22;3349;49.830;8.748;2023-11-18T09:21:55;7.80;99.90
6627;DHT22;3349;49.830;8.748;2023-11-18T09:24:22;7.90;99.90
6627;DHT22;3349;49.830;8.748;2023-11-18T09:26:51;7.90;99.90
6627;DHT22;3349;49.830;8.748;2023-11-18T09:29:20;7.90;99.90
6627;DHT22;3349;49.830;8.748;2023-11-18T09:31:50;7.90;99.90
6627;DHT22;3349;49.830;8.748;2023-11-18T09:34:18;7.90;99.90
6627;DHT22;3349;49.830;8.748;2023-11-18T09:36:52;7.80;99.90
6627;DHT22;3349;49.830;8.748;2023-11-18T09:39:19;7.90;99.90
6627;DHT22;3349;49.830;8.748;2023-11-18T09:41:54;7.90;99.90
6627;DHT22;3349;49.830;8.748;2023-11-18T09:44:23;7.90;99.90
6627;DHT22;3349;49.830;8.748;2023-11-18T09:46:55;8.00;99.90
6627;DHT22;3349;49.830;8.748;2023-11-18T09:49:32;8.10;99.90
6627;DHT22;3349;49.830;8.748;2023-11-18T09:52:05;8.10;99.90
6627;DHT22;3349;49.830;8.748;2023-11-18T09:54:36;8.10;99.90
6627;DHT22;3349;49.830;8.748;2023-11-18T09:57:10;8.20;99.90
6627;DHT22;3349;49.830;8.748;2023-11-18T09:59:49;8.20;99.90
6627;DHT22;3349;49.830;8.748;2023-11-18T10:02:20;8.30;99.90
6627;DHT22;3349;49.830;8.748;2023-11-18T10:04:49;8.20;99.90
6627;DHT22;3349;49.830;8.748;2023-11-18T10:07:23;8.20;99.90
6627;DHT22;3349;49.830;8.748;2023-11-18T10:09:53;8.20;99.90
6627;DHT22;3349;49.830;8.748;2023-11-18T10:12:22;8.20;99.90
6627;DHT22;3349;49.830;8.748;2023-11-18T10:14:53;8.20;99.90
6627;DHT22;3349;49.830;8.748;2023-11-18T10:17:22;8.30;99.90
6627;DHT22;3349;49.830;8.748;2023-11-18T10:19:51;8.40;99.90
6627;DHT22;3349;49.830;8.748;2023-11-18T10:22:22;8.50;99.90
6627;DHT22;3349;49.830;8.748;2023-11-18T10:24:50;8.60;99.90
6627;DHT22;3349;49.830;8.748;2023-11-18T10:27:20;8.50;99.90
6627;DHT22;3349;49.830;8.748;2023-11-18T10:29:49;8.60;99.90
6627;DHT22;3349;49.830;8.748;2023-11-18T10:32:19;8.60;99.90
6627;DHT22;3349;49.830;8.748;2023-11-18T10:34:47;8.50;99.80
6627;DHT22;3349;49.830;8.748;2023-11-18T10:37:15;8.50;99.90
6627;DHT22;3349;49.830;8.748;2023-11-18T10:39:46;8.50;99.90
6627;DHT22;3349;49.830;8.748;2023-11-18T10:42:13;8.50;99.90
6627;DHT22;3349;49.830;8.748;2023-11-18T10:44:54;8.50;99.90
6627;DHT22;3349;49.830;8.748;2023-11-18T10:47:23;8.50;99.90
6627;DHT22;3349;49.830;8.748;2023-11-18T10:49:51;8.60;99.90
6627;DHT22;3349;49.830;8.748;2023-11-18T10:52:19;8.70;99.90
6627;DHT22;3349;49.830;8.748;2023-11-18T10:54:50;8.80;99.90
6627;DHT22;3349;49.830;8.748;2023-11-18T10:57:20;8.90;99.90
6627;DHT22;3349;49.830;8.748;2023-11-18T10:59:58;9.00;98.70
6627;DHT22;3349;49.830;8.748;2023-11-18T11:02:30;9.20;99.00
6627;DHT22;3349;49.830;8.748;2023-11-18T11:05:00;9.30;97.70
6627;DHT22;3349;49.830;8.748;2023-11-18T11:07:28;9.40;97.10
6627;DHT22;3349;49.830;8.748;2023-11-18T11:09:55;9.30;94.60
6627;DHT22;3349;49.830;8.748;2023-11-18T11:12:23;9.40;93.80
6627;DHT22;3349;49.830;8.748;2023-11-18T11:14:57;9.30;92.70
6627;DHT22;3349;49.830;8.748;2023-11-18T11:17:27;9.10;93.80
6627;DHT22;3349;49.830;8.748;2023-11-18T11:20:00;9.10;95.00
6627;DHT22;3349;49.830;8.748;2023-11-18T11:22:38;9.20;96.20
6627;DHT22;3349;49.830;8.748;2023-11-18T11:25:15;9.10;96.30
6627;DHT22;3349;49.830;8.748;2023-11-18T11:27:54;9.10;96.30
6627;DHT22;3349;49.830;8.748;2023-11-18T11:30:28;9.00;95.80
6627;DHT22;3349;49.830;8.748;2023-11-18T11:33:07;9.00;96.90
6627;DHT22;3349;49.830;8.748;2023-11-18T11:35:40;8.80;96.20
6627;DHT22;3349;49.830;8.748;2023-11-18T11:38:12;8.80;96.30
6627;DHT22;3349;49.830;8.748;2023-11-18T11:40:41;8.70;96.20
6627;DHT22;3349;49.830;8.748;2023-11-18T11:43:09;8.60;96.10
6627;DHT22;3349;49.830;8.748;2023-11-18T11:45:37;8.60;97.40
6627;DHT22;3349;49.830;8.748;2023-11-18T11:48:07;8.60;98.00
6627;DHT22;3349;49.830;8.748;2023-11-18T11:51:09;8.60;98.40
6627;DHT22;3349;49.830;8.748;2023-11-18T11:53:42;8.50;97.80
6627;DHT22;3349;49.830;8.748;2023-11-18T11:56:12;8.40;97.40
6627;DHT22;3349;49.830;8.748;2023-11-18T11:58:46;8.40;98.30
6627;DHT22;3349;49.830;8.748;2023-11-18T12:01:24;8.40;99.40
6627;DHT22;3349;49.830;8.748;2023-11-18T12:03:57;8.30;98.50
6627;DHT22;3349;49.830;8.748;2023-11-18T12:06:24;8.20;99.60
6627;DHT22;3349;49.830;8.748;2023-11-18T12:08:52;8.20;99.80
6627;DHT22;3349;49.830;8.748;2023-11-18T12:11:19;8.20;99.90
6627;DHT22;3349;49.830;8.748;2023-11-18T12:14:01;8.10;99.90
6627;DHT22;3349;49.830;8.748;2023-11-18T12:16:57;8.20;99.90
6627;DHT22;3349;49.830;8.748;2023-11-18T12:19:31;8.20;99.90
6627;DHT22;3349;49.830;8.748;2023-11-18T12:22:02;8.20;99.90
6627;DHT22;3349;49.830;8.748;2023-11-18T12:24:38;8.20;99.90
6627;DHT22;3349;49.830;8.748;2023-11-18T12:27:05;8.30;99.90
6627;DHT22;3349;49.830;8.748;2023-11-18T12:29:41;8.30;99.90
6627;DHT22;3349;49.830;8.748;2023-11-18T12:32:08;8.30;99.90
6627;DHT22;3349;49.830;8.748;2023-11-18T12:34:52;8.30;99.90
6627;DHT22;3349;49.830;8.748;2023-11-18T12:37:48;8.30;99.90
6627;DHT22;3349;49.830;8.748;2023-11-18T12:43:42;8.30;99.90
6627;DHT22;3349;49.830;8.748;2023-11-18T12:46:42;8.20;99.90
6627;DHT22;3349;49.830;8.748;2023-11-18T12:49:15;8.20;99.90
6627;DHT22;3349;49.830;8.748;2023-11-18T12:51:44;8.20;99.90
6627;DHT22;3349;49.830;8.748;2023-11-18T12:54:12;8.10;99.90
6627;DHT22;3349;49.830;8.748;2023-11-18T12:56:38;8.10;99.90
6627;DHT22;3349;49.830;8.748;2023-11-18T12:59:05;8.00;99.20
6627;DHT22;3349;49.830;8.748;2023-11-18T13:01:33;8.10;97.70
6627;DHT22;3349;49.830;8.748;2023-11-18T13:04:01;8.10;97.80
6627;DHT22;3349;49.830;8.748;2023-11-18T13:06:28;8.10;97.80
6627;DHT22;3349;49.830;8.748;2023-11-18T13:08:57;8.00;97.10
6627;DHT22;3349;49.830;8.748;2023-11-18T13:11:24;8.00;97.30
6627;DHT22;3349;49.830;8.748;2023-11-18T13:13:51;8.00;98.80
6627;DHT22;3349;49.830;8.748;2023-11-18T13:16:19;7.90;99.80
6627;DHT22;3349;49.830;8.748;2023-11-18T13:18:48;7.80;99.90
6627;DHT22;3349;49.830;8.748;2023-11-18T13:21:15;7.80;99.90
6627;DHT22;3349;49.830;8.748;2023-11-18T13:23:45;7.80;99.90
6627;DHT22;3349;49.830;8.748;2023-11-18T13:26:15;7.80;99.90
6627;DHT22;3349;49.830;8.748;2023-11-18T13:28:42;7.80;99.90
6627;DHT22;3349;49.830;8.748;2023-11-18T13:31:09;7.80;99.90
6627;DHT22;3349;49.830;8.748;2023-11-18T13:33:38;7.80;99.90
6627;DHT22;3349;49.830;8.748;2023-11-18T13:36:05;7.80;99.90
6627;DHT22;3349;49.830;8.748;2023-11-18T13:38:35;7.80;99.90
6627;DHT22;3349;49.830;8.748;2023-11-18T13:41:02;7.90;99.90
6627;DHT22;3349;49.830;8.748;2023-11-18T13:43:42;7.80;99.90
6627;DHT22;3349;49.830;8.748;2023-11-18T13:46:11;7.90;99.90
6627;DHT22;3349;49.830;8.748;2023-11-18T13:48:38;7.80;99.90
6627;DHT22;3349;49.830;8.748;2023-11-18T13:51:07;7.80;99.90
6627;DHT22;3349;49.830;8.748;2023-11-18T13:53:35;7.90;99.90
6627;DHT22;3349;49.830;8.748;2023-11-18T13:56:01;7.90;99.90
6627;DHT22;3349;49.830;8.748;2023-11-18T13:58:29;7.90;99.90
6627;DHT22;3349;49.830;8.748;2023-11-18T14:00:57;7.90;99.90
6627;DHT22;3349;49.830;8.748;2023-11-18T14:03:26;7.90;99.90
6627;DHT22;3349;49.830;8.748;2023-11-18T14:05:57;7.90;99.90
6627;DHT22;3349;49.830;8.748;2023-11-18T14:08:27;7.90;99.90
6627;DHT22;3349;49.830;8.748;2023-11-18T14:10:54;7.90;99.90
6627;DHT22;3349;49.830;8.748;2023-11-18T14:13:20;7.90;99.90
6627;DHT22;3349;49.830;8.748;2023-11-18T14:15:47;7.90;99.90
6627;DHT22;3349;49.830;8.748;2023-11-18T14:18:21;7.90;99.90
6627;DHT22;3349;49.830;8.748;2023-11-18T14:20:48;7.90;99.90
6627;DHT22;3349;49.830;8.748;2023-11-18T14:23:15;8.00;99.90
6627;DHT22;3349;49.830;8.748;2023-11-18T14:25:45;7.90;99.90
6627;DHT22;3349;49.830;8.748;2023-11-18T14:28:12;7.90;99.90
6627;DHT22;3349;49.830;8.748;2023-11-18T14:30:39;7.90;99.90
6627;DHT22;3349;49.830;8.748;2023-11-18T14:33:07;7.90;99.90
6627;DHT22;3349;49.830;8.748;2023-11-18T14:35:35;7.80;99.90
6627;DHT22;3349;49.830;8.748;2023-11-18T14:38:02;7.80;99.90
6627;DHT22;3349;49.830;8.748;2023-11-18T14:40:29;7.80;99.90
6627;DHT22;3349;49.830;8.748;2023-11-18T14:42:57;7.80;99.90
6627;DHT22;3349;49.830;8.748;2023-11-18T14:45:24;7.80;99.90
6627;DHT22;3349;49.830;8.748;2023-11-18T14:47:51;7.80;99.90
6627;DHT22;3349;49.830;8.748;2023-11-18T14:50:19;7.80;99.90
6627;DHT22;3349;49.830;8.748;2023-11-18T14:52:48;7.80;99.90
6627;DHT22;3349;49.830;8.748;2023-11-18T14:55:17;7.70;99.90
6627;DHT22;3349;49.830;8.748;2023-11-18T14:57:44;7.70;99.90
6627;DHT22;3349;49.830;8.748;2023-11-18T15:00:13;7.70;99.90
6627;DHT22;3349;49.830;8.748;2023-11-18T15:02:47;7.80;99.90
6627;DHT22;3349;49.830;8.748;2023-11-18T15:05:14;7.70;99.90
6627;DHT22;3349;49.830;8.748;2023-11-18T15:07:49;7.80;99.90
6627;DHT22;3349;49.830;8.748;2023-11-18T15:10:16;7.70;99.90
6627;DHT22;3349;49.830;8.748;2023-11-18T15:12:47;7.80;99.90
6627;DHT22;3349;49.830;8.748;2023-11-18T15:15:14;7.70;99.90
6627;DHT22;3349;49.830;8.748;2023-11-18T15:17:47;7.80;99.90
6627;DHT22;3349;49.830;8.748;2023-11-18T15:20:15;7.80;99.90
6627;DHT22;3349;49.830;8.748;2023-11-18T15:22:44;7.70;99.90
6627;DHT22;3349;49.830;8.748;2023-11-18T15:25:12;7.70;99.90
6627;DHT22;3349;49.830;8.748;2023-11-18T15:27:40;7.70;99.90
6627;DHT22;3349;49.830;8.748;2023-11-18T15:30:09;7.60;99.90
6627;DHT22;3349;49.830;8.748;2023-11-18T15:32:39;7.70;99.90
6627;DHT22;3349;49.830;8.748;2023-11-18T15:35:07;7.60;99.90
6627;DHT22;3349;49.830;8.748;2023-11-18T15:37:35;7.50;99.90
6627;DHT22;3349;49.830;8.748;2023-11-18T15:40:04;7.50;99.90
6627;DHT22;3349;49.830;8.748;2023-11-18T15:42:37;7.40;99.90
6627;DHT22;3349;49.830;8.748;2023-11-18T15:45:07;7.40;99.90
6627;DHT22;3349;49.830;8.748;2023-11-18T15:47:35;7.30;99.90
6627;DHT22;3349;49.830;8.748;2023-11-18T15:50:03;7.30;99.90
6627;DHT22;3349;49.830;8.748;2023-11-18T15:52:31;7.30;99.90
6627;DHT22;3349;49.830;8.748;2023-11-18T15:54:59;7.20;99.90
6627;DHT22;3349;49.830;8.748;2023-11-18T15:57:26;7.30;99.90
6627;DHT22;3349;49.830;8.748;2023-11-18T15:59:55;7.30;99.90
6627;DHT22;3349;49.830;8.748;2023-11-18T16:02:22;7.20;99.90
6627;DHT22;3349;49.830;8.748;2023-11-18T16:04:49;7.20;99.90
6627;DHT22;3349;49.830;8.748;2023-11-18T16:07:16;7.20;99.90
6627;DHT22;3349;49.830;8.748;2023-11-18T16:09:43;7.20;99.90
6627;DHT22;3349;49.830;8.748;2023-11-18T16:12:09;7.20;99.90
6627;DHT22;3349;49.830;8.748;2023-11-18T16:14:37;7.20;99.90
6627;DHT22;3349;49.830;8.748;2023-11-18T16:17:05;7.20;99.90
6627;DHT22;3349;49.830;8.748;2023-11-18T16:19:32;7.20;99.90
6627;DHT22;3349;49.830;8.748;2023-11-18T16:21:59;7.20;99.90
6627;DHT22;3349;49.830;8.748;2023-11-18T16:24:26;7.20;99.90
6627;DHT22;3349;49.830;8.748;2023-11-18T16:26:53;7.20;99.90
6627;DHT22;3349;49.830;8.748;2023-11-18T16:29:19;7.20;99.90
6627;DHT22;3349;49.830;8.748;2023-11-18T16:31:46;7.20;99.90